Sheridan, Nebraska
Current Conditions -  °F | °C
As of 6:55 AM on Wednesday 26 Nov 2014 (Local Time) from KHDE Reporting Station
Scattered Clouds Scattered Clouds  
Wind Chill: 19°   Ceiling: Unl
Heat Index: 32°   Visibility: 10mi
Dew Point: 20°   Wind: 23mph
Humidity: 61%   Direction: 330°NNW
Pressure: 30.08"   Gusts: 29mph
Location:  40.4958°N, 99.3198°W
Report Text: KHDE 261255Z AUTO 33020G25KT 10SM SCT043 00/M07 A3008 RMK AO2 T00011067
Loading
Personal Weather Stations






























Interactive Weather Map New forecast layout! Learn more

10-Day Weather Forecast

Advertisements
Track Severe Weather on mobile